Time;durP1;ratioP1;P1;durP2;ratioP2;P2;SDS_P1;SDS_P2;PMS_P1;PMS_P2;Temp;Humidity;BMP_temperature;BMP_pressure;BME280_temperature;BME280_humidity;BME280_pressure;Samples;Min_cycle;Max_cycle;Signal;HPM_P1;HPM_P2
2021/08/26 00:06:48;;;;;;;7.80;7.00;;;;;;;18.36;70.49;94796.13;5031737;28;20044;-79
2021/08/26 00:09:15;;;;;;;11.20;7.18;;;;;;;18.31;70.97;94790.94;5033476;28;20033;-78
2021/08/26 00:11:48;;;;;;;10.43;7.30;;;;;;;18.27;70.88;94795.19;5032876;28;20033;-79
2021/08/26 00:14:14;;;;;;;7.45;6.75;;;;;;;18.25;71.19;94794.69;5033944;28;20040;-78
2021/08/26 00:16:41;;;;;;;9.38;7.35;;;;;;;18.28;71.21;94786.22;5034316;28;20033;-79
2021/08/26 00:19:10;;;;;;;12.90;7.68;;;;;;;18.28;71.03;94786.22;5035482;28;20057;-79
2021/08/26 00:21:35;;;;;;;10.23;7.40;;;;;;;18.24;71.18;94786.00;5034972;28;20078;-79
2021/08/26 00:24:01;;;;;;;8.45;7.60;;;;;;;18.28;70.93;94778.34;5042280;28;20041;-78
2021/08/26 00:26:31;;;;;;;11.25;7.05;;;;;;;18.29;70.69;94777.25;5051396;28;20029;-77
2021/08/26 00:28:56;;;;;;;8.98;6.90;;;;;;;18.29;70.81;94782.53;5052438;28;20101;-79
2021/08/26 00:31:22;;;;;;;8.10;7.10;;;;;;;18.28;71.39;94780.97;5041393;28;20045;-79
2021/08/26 00:33:47;;;;;;;8.95;7.50;;;;;;;18.25;70.95;94786.78;5034531;28;20037;-79
2021/08/26 00:36:12;;;;;;;10.95;7.05;;;;;;;18.25;71.19;94778.91;5034626;28;20029;-79
2021/08/26 00:38:38;;;;;;;11.05;7.10;;;;;;;18.26;71.03;94777.84;5033858;28;20037;-79
2021/08/26 00:41:04;;;;;;;9.82;7.45;;;;;;;18.16;71.06;94772.66;5035730;28;20021;-78
2021/08/26 00:43:32;;;;;;;7.40;6.70;;;;;;;18.13;71.35;94778.50;5030117;28;20413;-77
2021/08/26 00:45:58;;;;;;;9.93;6.93;;;;;;;18.07;71.63;94779.63;5030168;28;20032;-77
2021/08/26 00:48:25;;;;;;;14.45;6.15;;;;;;;18.11;71.65;94775.38;5026546;28;20124;-77
2021/08/26 00:50:51;;;;;;;8.68;7.05;;;;;;;18.11;71.55;94776.16;5030117;28;20556;-77
2021/08/26 00:53:17;;;;;;;10.60;7.10;;;;;;;18.15;71.49;94776.38;5028884;28;20126;-78
2021/08/26 00:55:42;;;;;;;18.02;6.85;;;;;;;18.19;71.67;94782.63;5029998;28;20053;-77
2021/08/26 00:58:08;;;;;;;11.23;7.13;;;;;;;18.24;71.03;94783.38;5028765;28;20040;-78
2021/08/26 01:00:34;;;;;;;11.57;7.13;;;;;;;18.21;71.43;94780.50;5026821;28;20045;-77
2021/08/26 01:03:04;;;;;;;9.07;7.13;;;;;;;18.22;71.55;94776.81;5028770;28;20507;-77
2021/08/26 01:05:48;;;;;;;10.05;6.80;;;;;;;18.23;71.29;94773.13;5030139;28;20122;-77
2021/08/26 01:08:32;;;;;;;8.07;7.35;;;;;;;18.26;71.24;94772.56;5028726;28;20034;-78
2021/08/26 01:10:58;;;;;;;8.85;7.80;;;;;;;18.24;71.28;94769.44;5047535;28;20045;-79
2021/08/26 01:13:25;;;;;;;8.40;7.50;;;;;;;18.33;70.75;94774.84;5034436;28;20095;-79
2021/08/26 01:16:03;;;;;;;10.25;7.50;;;;;;;18.37;70.91;94773.22;5017630;28;20108;-79
2021/08/26 01:18:30;;;;;;;9.02;7.60;;;;;;;18.38;70.46;94759.78;5049147;28;20033;-79
2021/08/26 01:20:55;;;;;;;8.77;7.05;;;;;;;18.37;71.13;94752.16;5037053;28;20049;-79
2021/08/26 01:23:21;;;;;;;11.20;7.75;;;;;;;18.36;70.96;94756.63;5036579;28;20025;-79
2021/08/26 01:25:46;;;;;;;7.82;7.10;;;;;;;18.41;70.84;94764.50;5034886;28;20060;-79
2021/08/26 01:28:12;;;;;;;12.80;7.30;;;;;;;18.38;71.01;94751.88;5018025;28;20045;-79
2021/08/26 01:30:42;;;;;;;11.43;8.23;;;;;;;18.37;70.73;94758.19;5017705;28;20017;-79
2021/08/26 01:33:11;;;;;;;19.27;7.80;;;;;;;18.35;70.49;94755.06;5032523;28;20410;-78
2021/08/26 01:35:36;;;;;;;10.40;7.10;;;;;;;18.38;70.20;94753.72;5035760;28;20014;-78
2021/08/26 01:38:04;;;;;;;9.07;7.35;;;;;;;18.36;70.36;94756.63;5017853;28;20030;-78
2021/08/26 01:40:39;;;;;;;7.65;6.95;;;;;;;18.36;70.41;94761.91;5034795;28;20067;-78
2021/08/26 01:43:11;;;;;;;9.80;8.02;;;;;;;18.39;70.27;94771.13;5017987;28;20045;-79
2021/08/26 01:48:12;;;;;;;9.32;7.40;;;;;;;18.41;70.51;94769.75;5042826;22;19924;-78
2021/08/26 01:50:37;;;;;;;13.60;7.40;;;;;;;18.47;70.45;94771.25;5034549;28;20501;-79
2021/08/26 01:53:03;;;;;;;14.02;7.05;;;;;;;18.47;70.65;94768.63;5017141;28;20095;-78
2021/08/26 01:55:35;;;;;;;10.90;6.90;;;;;;;18.51;69.58;94764.34;5034154;28;20409;-77
2021/08/26 01:58:01;;;;;;;7.18;6.47;;;;;;;18.56;69.06;94758.25;5032941;28;20036;-79
2021/08/26 02:00:26;;;;;;;8.70;5.82;;;;;;;18.58;68.73;94756.91;5037659;28;20029;-79
2021/08/26 02:02:51;;;;;;;6.07;5.47;;;;;;;18.58;67.98;94764.81;5019197;28;20033;-79
2021/08/26 02:05:20;;;;;;;11.98;6.07;;;;;;;18.56;68.74;94761.69;5037330;28;20378;-79
2021/08/26 02:07:49;;;;;;;10.07;7.07;;;;;;;18.63;68.40;94773.72;5037171;28;20033;-79
2021/08/26 02:10:14;;;;;;;6.88;6.18;;;;;;;18.67;68.38;94772.09;5020051;28;20049;-80
2021/08/26 02:12:40;;;;;;;6.45;5.78;;;;;;;18.70;68.25;94774.16;5034546;28;20032;-79
2021/08/26 02:15:06;;;;;;;7.03;6.32;;;;;;;18.73;68.27;94765.72;5037152;28;20040;-78
2021/08/26 02:17:31;;;;;;;7.47;5.63;;;;;;;18.80;67.82;94758.22;5037924;28;20123;-79
2021/08/26 02:19:57;;;;;;;5.95;5.35;;;;;;;18.84;66.98;94748.69;5036832;28;20041;-79
2021/08/26 02:22:22;;;;;;;5.75;4.63;;;;;;;18.88;66.87;94752.34;5036660;28;20041;-79
2021/08/26 02:24:48;;;;;;;7.30;4.68;;;;;;;18.92;66.63;94753.34;5038222;28;20025;-79
2021/08/26 02:27:13;;;;;;;12.35;5.20;;;;;;;18.97;66.58;94745.34;5036876;28;20040;-79
2021/08/26 02:29:38;;;;;;;6.35;5.10;;;;;;;18.99;66.73;94743.19;5036745;28;20029;-79
2021/08/26 02:32:07;;;;;;;8.25;5.68;;;;;;;19.03;66.68;94744.19;5037740;28;20053;-79
2021/08/26 02:34:32;;;;;;;7.97;5.68;;;;;;;19.10;66.43;94743.84;5038192;28;20030;-79
2021/08/26 02:36:58;;;;;;;5.97;5.22;;;;;;;19.10;66.58;94744.63;5037307;28;20060;-79
2021/08/26 02:39:26;;;;;;;8.05;6.18;;;;;;;19.12;66.16;94746.97;5037899;28;20029;-79
2021/08/26 02:41:52;;;;;;;8.23;5.93;;;;;;;19.19;65.81;94752.66;5037722;28;20037;-79
2021/08/26 02:44:17;;;;;;;6.90;6.15;;;;;;;19.23;65.71;94756.31;5035864;28;20095;-79
2021/08/26 02:46:43;;;;;;;7.60;5.97;;;;;;;19.27;65.68;94752.03;5017358;28;20060;-79
2021/08/26 02:49:08;;;;;;;9.52;5.60;;;;;;;19.28;65.80;94755.44;5037312;28;20537;-79
2021/08/26 02:51:33;;;;;;;6.90;6.00;;;;;;;19.29;65.88;94751.72;5038421;28;20033;-80
2021/08/26 02:54:02;;;;;;;8.93;5.15;;;;;;;19.32;66.11;94756.41;5017972;28;20056;-79
2021/08/26 02:56:27;;;;;;;8.75;6.15;;;;;;;19.31;65.96;94749.59;5000618;28;20037;-78
2021/08/26 02:58:53;;;;;;;5.60;5.10;;;;;;;19.33;65.97;94752.72;5016079;28;20041;-79
2021/08/26 03:01:18;;;;;;;17.67;5.43;;;;;;;19.34;65.76;94759.56;5033176;28;20025;-78
2021/08/26 03:03:50;;;;;;;15.52;6.28;;;;;;;19.33;66.41;94763.25;5033007;28;20408;-78
2021/08/26 03:06:15;;;;;;;12.23;5.70;;;;;;;19.32;65.63;94756.41;5016441;28;20068;-79
2021/08/26 03:08:41;;;;;;;6.25;4.90;;;;;;;19.32;65.08;94756.41;5016395;28;20041;-78
2021/08/26 03:11:06;;;;;;;5.32;4.78;;;;;;;19.30;65.23;94748.03;5033845;28;20080;-79
2021/08/26 03:13:32;;;;;;;6.03;4.47;;;;;;;19.27;65.04;94746.75;5016099;28;20390;-78
2021/08/26 03:15:57;;;;;;;6.22;4.53;;;;;;;19.25;65.12;94743.63;5032343;28;20029;-78
2021/08/26 03:18:22;;;;;;;5.30;4.65;;;;;;;19.23;65.47;94747.63;5033409;28;20037;-78
2021/08/26 03:20:48;;;;;;;7.53;4.35;;;;;;;19.19;65.07;94742.13;5014552;28;20045;-78
2021/08/26 03:23:13;;;;;;;5.13;4.47;;;;;;;19.15;65.35;94747.19;5033685;28;20041;-78
2021/08/26 03:25:39;;;;;;;7.05;4.57;;;;;;;19.15;65.78;94747.19;5033737;28;20028;-79
2021/08/26 03:28:04;;;;;;;4.82;4.20;;;;;;;19.17;65.42;94734.50;5032786;28;20038;-78
2021/08/26 03:30:30;;;;;;;6.40;4.55;;;;;;;19.17;65.22;94733.72;5033659;28;20075;-78
2021/08/26 03:32:55;;;;;;;5.43;4.80;;;;;;;19.23;65.40;94747.63;5033635;28;20136;-78
2021/08/26 03:35:23;;;;;;;5.15;4.65;;;;;;;19.25;65.68;94753.38;5033382;28;20022;-79
2021/08/26 03:37:52;;;;;;;7.72;4.65;;;;;;;19.27;65.63;94748.59;5033633;28;20038;-78
2021/08/26 03:40:17;;;;;;;5.15;4.55;;;;;;;19.34;65.41;94743.72;5033955;28;20186;-78
2021/08/26 03:42:43;;;;;;;5.72;4.57;;;;;;;19.36;65.18;94749.50;4999667;28;20025;-79
2021/08/26 03:45:09;;;;;;;7.80;4.70;;;;;;;19.34;65.51;94741.88;4999723;28;20620;-79
2021/08/26 03:47:34;;;;;;;6.47;4.72;;;;;;;19.38;65.39;94740.25;5033650;28;20025;-79
2021/08/26 03:50:00;;;;;;;5.57;4.78;;;;;;;19.41;65.03;94730.97;5033605;28;20475;-79
2021/08/26 03:52:25;;;;;;;5.30;4.68;;;;;;;19.42;65.01;94735.97;5026181;23;20111;-79
2021/08/26 03:54:50;;;;;;;5.15;4.72;;;;;;;19.41;65.33;94737.03;5033845;28;20045;-78
2021/08/26 03:57:19;;;;;;;7.90;5.20;;;;;;;19.47;64.88;94727.97;5032518;28;20021;-77
2021/08/26 03:59:44;;;;;;;6.20;5.18;;;;;;;19.49;64.85;94741.63;5032836;28;20029;-79
2021/08/26 04:02:10;;;;;;;10.55;5.00;;;;;;;19.52;64.93;94739.47;5033217;28;20600;-78
2021/08/26 04:04:35;;;;;;;5.90;5.30;;;;;;;19.57;64.47;94737.59;5032801;28;20397;-78
2021/08/26 04:07:00;;;;;;;8.68;5.28;;;;;;;19.56;65.29;94733.41;5032357;28;20042;-78
2021/08/26 04:09:26;;;;;;;6.30;5.65;;;;;;;19.54;65.68;94737.38;5033143;28;20544;-78
2021/08/26 04:11:51;;;;;;;6.07;5.45;;;;;;;19.54;65.92;94738.19;5032634;28;20071;-79
2021/08/26 04:14:17;;;;;;;7.28;5.55;;;;;;;19.61;65.40;94737.78;5032766;28;20022;-78
2021/08/26 04:16:42;;;;;;;5.32;4.72;;;;;;;19.60;65.40;94734.38;5032631;28;20033;-78
2021/08/26 04:19:07;;;;;;;9.77;5.93;;;;;;;19.67;65.60;94747.94;5033436;28;20025;-78
2021/08/26 04:21:33;;;;;;;9.27;5.40;;;;;;;19.72;65.58;94742.63;5033106;28;20030;-79
2021/08/26 04:23:58;;;;;;;8.55;4.95;;;;;;;19.79;64.77;94745.63;5032210;28;20014;-79
2021/08/26 04:26:24;;;;;;;10.07;5.38;;;;;;;19.83;64.75;94740.56;5015707;28;20507;-79
2021/08/26 04:28:55;;;;;;;9.82;5.10;;;;;;;19.83;64.10;94737.91;5036450;28;20030;-78
2021/08/26 04:31:21;;;;;;;5.30;4.40;;;;;;;19.86;64.03;94747.13;5034615;28;20072;-78
2021/08/26 04:33:46;;;;;;;5.65;4.30;;;;;;;19.86;64.24;94755.06;5038431;28;20427;-78
2021/08/26 04:36:12;;;;;;;6.53;4.63;;;;;;;19.89;63.48;94754.47;5041517;28;20033;-78
2021/08/26 04:38:43;;;;;;;4.63;4.22;;;;;;;19.85;63.95;94761.38;5049525;28;20032;-78
2021/08/26 04:41:08;;;;;;;5.07;4.60;;;;;;;19.91;64.02;94749.69;5044038;28;20033;-78
2021/08/26 04:43:34;;;;;;;12.57;4.90;;;;;;;19.94;63.79;94751.72;5032928;28;20299;-78
2021/08/26 04:45:59;;;;;;;5.78;4.63;;;;;;;19.98;63.36;94748.19;5046379;28;20505;-78
2021/08/26 04:48:28;;;;;;;6.97;5.13;;;;;;;20.12;62.63;94742.94;5031679;28;20029;-78
2021/08/26 04:50:57;;;;;;;9.25;4.15;;;;;;;20.23;62.64;94732.97;5032298;28;20033;-78
2021/08/26 04:53:22;;;;;;;9.85;4.20;;;;;;;20.22;62.58;94724.28;5032979;28;20037;-78
2021/08/26 04:55:47;;;;;;;6.50;3.80;;;;;;;20.28;62.00;94733.66;5048621;22;20052;-79
2021/08/26 04:58:13;;;;;;;8.82;4.63;;;;;;;20.33;61.38;94716.91;5032553;28;20041;-78
2021/08/26 05:00:38;;;;;;;4.90;4.40;;;;;;;20.29;61.88;94722.00;5032570;28;20036;-79
2021/08/26 05:03:05;;;;;;;6.03;3.67;;;;;;;20.35;61.04;94731.41;5033128;28;20509;-78
2021/08/26 05:05:30;;;;;;;6.72;3.95;;;;;;;20.37;61.27;94721.34;5032583;28;20112;-79
2021/08/26 05:07:56;;;;;;;4.40;4.00;;;;;;;20.43;60.87;94721.25;5032472;28;20562;-79
2021/08/26 05:10:21;;;;;;;4.07;3.67;;;;;;;20.52;60.65;94724.78;5017474;28;20032;-78
2021/08/26 05:12:47;;;;;;;5.03;3.58;;;;;;;20.56;60.21;94723.09;5033776;28;20116;-78
2021/08/26 05:15:12;;;;;;;4.20;3.90;;;;;;;20.56;60.14;94728.38;5033669;28;20068;-78
2021/08/26 05:17:37;;;;;;;6.18;3.75;;;;;;;20.60;60.23;94735.41;5044717;23;20068;-78
2021/08/26 05:20:03;;;;;;;5.65;3.78;;;;;;;20.62;60.09;94735.09;5035076;28;20025;-78
2021/08/26 05:22:38;;;;;;;7.78;3.42;;;;;;;20.56;60.02;94736.31;5034026;28;20075;-78
2021/08/26 05:25:04;;;;;;;3.83;3.50;;;;;;;20.58;59.92;94742.06;5035536;28;20029;-78
2021/08/26 05:27:29;;;;;;;4.30;3.90;;;;;;;20.48;60.80;94740.41;5033501;28;20445;-78
2021/08/26 05:29:54;;;;;;;7.47;4.55;;;;;;;20.49;60.99;94735.91;5034893;28;20025;-78
2021/08/26 05:32:20;;;;;;;4.45;3.97;;;;;;;20.44;61.53;94733.38;5033098;28;20029;-78
2021/08/26 05:34:46;;;;;;;7.05;3.42;;;;;;;20.51;59.97;94723.22;5035204;28;20029;-78
2021/08/26 05:37:11;;;;;;;4.75;3.85;;;;;;;20.49;60.27;94725.34;5034922;28;20021;-79
2021/08/26 05:39:37;;;;;;;4.38;3.97;;;;;;;20.41;61.71;94723.38;5017225;28;20048;-78
2021/08/26 05:42:02;;;;;;;4.68;4.28;;;;;;;20.42;62.02;94706.47;5037745;28;20074;-80
2021/08/26 05:44:28;;;;;;;6.13;4.03;;;;;;;20.47;60.67;94693.94;5037383;28;20053;-80
2021/08/26 05:46:53;;;;;;;6.40;4.10;;;;;;;20.53;60.89;94694.63;5035307;28;20097;-78
2021/08/26 05:49:19;;;;;;;5.90;3.88;;;;;;;20.58;59.73;94683.94;5034947;28;20033;-78
2021/08/26 05:51:47;;;;;;;4.53;4.13;;;;;;;20.59;59.57;94685.50;5033875;28;20096;-78
2021/08/26 05:54:13;;;;;;;19.63;4.47;;;;;;;21.22;57.81;94684.59;5015185;28;20639;-77
2021/08/26 05:56:38;;;;;;;4.50;4.10;;;;;;;23.27;52.43;94694.59;5013616;28;20034;-77
2021/08/26 05:59:04;;;;;;;3.65;3.28;;;;;;;25.67;46.80;94703.41;5032859;28;20041;-77
2021/08/26 06:01:32;;;;;;;5.65;3.28;;;;;;;26.44;44.24;94706.31;5033278;28;20021;-78
2021/08/26 06:04:01;;;;;;;4.57;3.47;;;;;;;26.23;43.27;94714.41;5032257;28;20026;-78
2021/08/26 06:06:26;;;;;;;3.00;2.80;;;;;;;25.79;44.33;94713.34;5031925;28;20493;-78
2021/08/26 06:08:51;;;;;;;3.10;2.80;;;;;;;25.40;44.54;94712.78;5032709;28;20056;-78
2021/08/26 06:11:17;;;;;;;3.28;2.38;;;;;;;25.05;45.32;94715.72;5017563;28;20452;-78
2021/08/26 06:13:45;;;;;;;2.65;2.45;;;;;;;24.83;45.88;94724.78;5014394;28;20025;-78
2021/08/26 06:16:11;;;;;;;5.38;3.38;;;;;;;24.84;47.46;94718.34;5033659;28;20500;-78
2021/08/26 06:18:36;;;;;;;6.55;2.88;;;;;;;24.99;45.56;94722.31;5033190;28;20034;-78
2021/08/26 06:21:02;;;;;;;2.95;2.75;;;;;;;25.37;44.62;94732.03;5030818;28;20026;-78
2021/08/26 06:23:27;;;;;;;3.15;2.80;;;;;;;25.45;43.83;94717.88;5030925;28;20060;-78
2021/08/26 06:25:53;;;;;;;4.72;2.70;;;;;;;25.20;44.77;94721.53;5032965;28;20021;-78
2021/08/26 06:28:18;;;;;;;4.30;3.30;;;;;;;24.86;46.01;94715.38;5033406;28;20052;-78
2021/08/26 06:30:43;;;;;;;15.65;3.67;;;;;;;24.55;47.70;94708.53;5031928;28;20029;-78
2021/08/26 06:33:09;;;;;;;3.63;3.08;;;;;;;24.31;48.13;94705.72;5033090;28;20038;-78
2021/08/26 06:35:35;;;;;;;9.23;4.03;;;;;;;24.07;49.13;94714.22;5031626;28;20036;-78
2021/08/26 06:38:01;;;;;;;5.03;3.55;;;;;;;24.06;48.80;94712.66;5033121;28;20045;-77
2021/08/26 06:40:26;;;;;;;3.30;3.10;;;;;;;24.15;49.02;94694.03;5032042;28;20021;-77
2021/08/26 06:42:52;;;;;;;8.20;3.58;;;;;;;24.52;48.49;94685.25;5018658;28;20041;-77
2021/08/26 06:45:17;;;;;;;5.70;5.10;;;;;;;25.22;47.23;94679.41;5037601;28;20029;-77
2021/08/26 06:47:46;;;;;;;3.97;3.58;;;;;;;26.00;45.01;94698.06;5035497;28;20485;-77
2021/08/26 06:50:11;;;;;;;3.33;3.08;;;;;;;26.26;43.60;94703.06;5031059;28;20504;-78
2021/08/26 06:52:37;;;;;;;6.00;4.60;;;;;;;26.38;42.18;94716.44;5033328;28;20059;-78
2021/08/26 06:55:02;;;;;;;4.15;3.67;;;;;;;26.26;42.71;94703.84;5031632;28;20037;-78
2021/08/26 06:57:29;;;;;;;4.15;3.03;;;;;;;26.23;42.22;94706.41;5013987;28;20053;-78
2021/08/26 06:59:55;;;;;;;5.75;3.20;;;;;;;26.30;42.72;94699.41;5032545;28;20024;-78
2021/08/26 07:02:20;;;;;;;3.58;2.90;;;;;;;26.16;41.53;94698.16;5032801;28;20021;-78
2021/08/26 07:04:46;;;;;;;5.10;2.80;;;;;;;25.90;41.37;94709.16;5032691;28;20044;-78
2021/08/26 07:07:11;;;;;;;2.83;2.63;;;;;;;25.66;41.57;94717.81;5032559;28;20025;-78
2021/08/26 07:09:37;;;;;;;8.00;3.08;;;;;;;25.67;42.53;94719.38;5015118;28;20029;-78
2021/08/26 07:12:02;;;;;;;7.95;3.50;;;;;;;25.76;42.73;94716.69;5031626;28;20041;-78
2021/08/26 07:14:28;;;;;;;5.47;3.28;;;;;;;25.88;41.54;94708.72;5031359;28;20037;-78
2021/08/26 07:16:53;;;;;;;6.93;3.30;;;;;;;25.95;41.94;94716.94;5014748;28;20032;-78
2021/08/26 07:19:19;;;;;;;5.40;3.85;;;;;;;25.84;41.85;94719.22;5014642;28;20136;-78
2021/08/26 07:21:44;;;;;;;4.10;3.70;;;;;;;25.78;42.61;94714.44;4995940;28;20450;-78
2021/08/26 07:24:09;;;;;;;12.43;3.88;;;;;;;25.78;43.04;94698.47;5032782;28;20382;-78
2021/08/26 07:26:35;;;;;;;6.72;3.80;;;;;;;25.95;42.96;94701.72;5032613;28;20095;-78
2021/08/26 07:29:00;;;;;;;5.03;3.70;;;;;;;26.31;42.05;94690.28;5028489;28;20082;-78
2021/08/26 07:31:26;;;;;;;6.90;3.70;;;;;;;26.42;42.04;94697.88;5031266;28;20037;-78
2021/08/26 07:33:51;;;;;;;10.77;4.30;;;;;;;26.60;41.70;94707.19;5032839;28;20405;-78
2021/08/26 07:36:17;;;;;;;4.68;3.38;;;;;;;26.59;40.94;94703.75;5047355;22;20509;-78
2021/08/26 07:38:42;;;;;;;3.70;3.40;;;;;;;26.34;41.00;94710.94;5031883;28;20409;-78
2021/08/26 07:41:07;;;;;;;4.10;3.65;;;;;;;25.75;42.54;94709.78;5030323;28;20040;-77
2021/08/26 07:43:35;;;;;;;5.13;3.78;;;;;;;25.28;43.78;94718.03;5031474;28;20041;-77
2021/08/26 07:46:01;;;;;;;8.90;5.20;;;;;;;24.82;44.64;94706.47;5032549;28;20030;-77
2021/08/26 07:48:27;;;;;;;4.03;3.53;;;;;;;24.62;45.60;94707.25;5029219;28;20557;-79
2021/08/26 07:50:53;;;;;;;8.25;4.18;;;;;;;24.36;46.69;94710.81;5033141;28;20431;-78
2021/08/26 07:53:21;;;;;;;4.90;4.20;;;;;;;24.54;45.24;94688.34;5034516;28;20033;-79
2021/08/26 07:55:47;;;;;;;6.25;3.88;;;;;;;24.85;45.38;94695.19;5035186;28;20087;-79
2021/08/26 07:58:12;;;;;;;8.65;4.10;;;;;;;25.17;45.63;94711.56;5032356;22;20296;-79
2021/08/26 08:00:38;;;;;;;10.75;4.28;;;;;;;25.27;45.09;94709.28;5031728;28;20042;-79
2021/08/26 08:03:03;;;;;;;12.07;4.40;;;;;;;25.21;43.63;94710.56;5033991;28;20041;-79
2021/08/26 08:05:29;;;;;;;9.10;4.40;;;;;;;25.08;43.81;94699.13;5029573;28;20097;-79
2021/08/26 08:07:54;;;;;;;4.53;4.13;;;;;;;25.05;43.80;94689.09;5033728;28;20037;-79
2021/08/26 08:10:20;;;;;;;5.10;4.65;;;;;;;24.91;44.16;94683.28;5039392;22;20094;-79
2021/08/26 08:12:45;;;;;;;10.95;4.28;;;;;;;24.97;44.49;94681.97;5035376;28;20041;-78
2021/08/26 08:15:12;;;;;;;7.95;4.75;;;;;;;25.07;43.84;94678.94;5035103;28;20045;-79
2021/08/26 08:20:06;;;;;;;8.35;4.72;;;;;;;25.69;43.58;94671.91;5166452;22;20432;-77
2021/08/26 08:22:31;;;;;;;6.28;4.35;;;;;;;26.13;42.32;94678.28;5029899;28;20508;-78
2021/08/26 08:24:56;;;;;;;4.88;4.43;;;;;;;26.45;42.02;94689.97;5029327;28;20079;-77
2021/08/26 08:27:22;;;;;;;6.53;4.85;;;;;;;26.62;42.21;94691.63;5032012;28;20393;-78
2021/08/26 08:29:47;;;;;;;8.50;4.50;;;;;;;26.61;41.44;94700.75;5030767;28;20034;-79
2021/08/26 08:32:13;;;;;;;12.13;4.72;;;;;;;26.49;42.13;94698.84;5035916;28;20029;-79
2021/08/26 08:34:39;;;;;;;5.70;4.57;;;;;;;26.44;41.58;94687.66;5040097;28;20022;-79
2021/08/26 08:37:04;;;;;;;6.47;4.90;;;;;;;26.39;42.26;94687.88;5034226;28;20037;-79
2021/08/26 08:39:30;;;;;;;4.40;4.00;;;;;;;26.34;42.23;94688.84;5039933;28;20501;-78
2021/08/26 08:41:55;;;;;;;4.60;4.28;;;;;;;26.23;42.39;94687.75;5045903;28;20037;-78
2021/08/26 08:44:21;;;;;;;5.60;4.90;;;;;;;26.10;42.54;94688.84;5048415;28;20034;-78
2021/08/26 08:46:48;;;;;;;6.53;4.97;;;;;;;25.82;43.83;94702.03;5049974;28;20040;-78
2021/08/26 08:49:13;;;;;;;13.13;5.30;;;;;;;25.54;44.97;94699.16;5046485;28;20029;-78
2021/08/26 08:54:22;;;;;;;11.98;8.95;;;;;;;25.03;48.12;94696.63;5010514;28;20436;-78
2021/08/26 08:56:47;;;;;;;13.35;8.65;;;;;;;24.94;47.93;94701.22;5010336;28;20557;-78
2021/08/26 08:59:13;;;;;;;11.65;7.63;;;;;;;24.99;47.23;94701.03;5011539;28;20033;-78
2021/08/26 09:01:38;;;;;;;10.68;7.72;;;;;;;24.95;47.89;94710.00;5011215;28;20034;-78
2021/08/26 09:04:06;;;;;;;17.50;6.97;;;;;;;24.94;48.89;94714.53;5010411;28;20040;-79
2021/08/26 09:06:41;;;;;;;6.97;5.85;;;;;;;24.82;50.05;94701.16;5012356;28;20069;-79
2021/08/26 09:09:07;;;;;;;11.32;6.20;;;;;;;24.79;50.18;94697.28;4993793;28;20034;-77
2021/08/26 09:11:33;;;;;;;5.80;5.30;;;;;;;24.78;50.35;94711.69;4978237;28;20026;-77
2021/08/26 09:14:26;;;;;;;6.47;5.25;;;;;;;24.82;47.77;94701.94;5032297;23;20091;-80
2021/08/26 09:16:54;;;;;;;6.60;5.63;;;;;;;24.80;47.81;94706.81;5009168;28;20128;-77
2021/08/26 09:19:30;;;;;;;12.27;6.25;;;;;;;24.75;48.11;94700.91;5011314;28;20113;-78
2021/08/26 09:22:05;;;;;;;8.95;5.90;;;;;;;24.76;48.32;94697.94;5011068;28;20375;-78
2021/08/26 09:24:44;;;;;;;8.23;5.55;;;;;;;24.88;47.96;94693.75;4993322;28;20030;-78
2021/08/26 09:27:09;;;;;;;14.63;6.65;;;;;;;24.98;48.05;94698.69;5035876;23;20476;-80
2021/08/26 09:29:57;;;;;;;8.52;6.20;;;;;;;24.85;47.56;94695.19;5032602;28;20084;-80
2021/08/26 09:32:31;;;;;;;8.77;6.85;;;;;;;24.77;47.54;94709.34;5030884;28;20053;-79
2021/08/26 09:37:22;;;;;;;7.33;6.23;;;;;;;24.45;47.37;94708.91;5059412;23;20065;-79
2021/08/26 09:40:05;;;;;;;8.85;6.90;;;;;;;24.38;49.00;94718.47;5036792;23;20506;-80
2021/08/26 09:42:30;;;;;;;10.45;7.30;;;;;;;24.28;49.45;94716.16;5017425;28;20100;-79
2021/08/26 09:44:56;;;;;;;9.18;7.47;;;;;;;24.28;49.96;94719.59;5019742;28;20034;-79
2021/08/26 09:47:21;;;;;;;9.00;6.60;;;;;;;24.27;50.38;94718.06;5037423;23;20190;-79
2021/08/26 09:49:46;;;;;;;6.97;6.28;;;;;;;24.14;52.32;94719.03;5015956;28;20042;-76
2021/08/26 09:52:13;;;;;;;12.90;8.07;;;;;;;24.11;52.04;94717.03;5013411;28;20021;-79
2021/08/26 09:54:46;;;;;;;10.77;7.03;;;;;;;24.18;51.66;94712.75;5015704;28;20040;-79
2021/08/26 09:57:33;;;;;;;12.70;7.25;;;;;;;24.33;51.91;94719.44;5015969;28;20049;-79
2021/08/26 10:00:01;;;;;;;12.70;7.32;;;;;;;24.52;50.88;94714.50;4999795;28;20493;-79
2021/08/26 10:02:28;;;;;;;10.93;6.75;;;;;;;24.75;50.84;94711.56;5016130;28;20065;-79
2021/08/26 10:04:54;;;;;;;10.85;7.53;;;;;;;24.99;49.15;94710.91;5017413;28;20030;-80
2021/08/26 10:07:20;;;;;;;14.52;7.78;;;;;;;25.14;48.44;94711.09;4983127;28;20033;-79
2021/08/26 10:09:45;;;;;;;9.27;7.38;;;;;;;25.33;48.35;94709.84;4998298;28;20040;-79
2021/08/26 10:12:12;;;;;;;11.65;7.93;;;;;;;25.51;48.17;94700.59;5016984;28;20033;-79
2021/08/26 10:14:45;;;;;;;8.40;7.30;;;;;;;25.68;47.97;94700.44;5017749;28;20132;-79
2021/08/26 10:17:13;;;;;;;10.93;7.70;;;;;;;25.87;48.24;94694.63;5015468;28;20045;-79
2021/08/26 10:19:39;;;;;;;17.67;7.65;;;;;;;26.03;48.04;94706.19;5017629;28;20029;-79
2021/08/26 10:22:13;;;;;;;12.43;7.88;;;;;;;26.14;47.89;94700.41;4999832;28;20034;-79
2021/08/26 10:24:38;;;;;;;10.85;8.30;;;;;;;26.24;47.27;94687.41;5027671;23;20049;-79
2021/08/26 10:27:35;;;;;;;10.55;7.90;;;;;;;26.49;46.50;94695.41;5038022;28;20037;-78
2021/08/26 10:30:01;;;;;;;9.75;8.07;;;;;;;26.44;46.13;94692.97;5019283;28;20041;-79
2021/08/26 10:32:26;;;;;;;12.45;9.35;;;;;;;26.29;46.62;94689.06;5026327;23;20050;-79
2021/08/26 10:35:08;;;;;;;13.98;8.35;;;;;;;26.56;46.18;94698.31;5016227;28;20056;-79
2021/08/26 10:37:54;;;;;;;16.30;8.07;;;;;;;26.85;46.28;94689.25;5017008;28;20034;-79
2021/08/26 10:40:39;;;;;;;19.52;8.55;;;;;;;27.14;44.91;94693.50;4999955;28;20037;-79
2021/08/26 10:43:06;;;;;;;14.13;8.10;;;;;;;27.25;44.64;94697.25;4999488;28;20042;-79
2021/08/26 10:45:50;;;;;;;11.65;8.82;;;;;;;27.30;45.77;94691.66;4999883;28;20038;-79
2021/08/26 10:48:17;;;;;;;16.08;9.23;;;;;;;27.25;45.70;94686.59;5017259;28;20029;-79
2021/08/26 10:50:45;;;;;;;11.90;9.15;;;;;;;27.28;44.83;94691.22;4999352;28;20076;-79
2021/08/26 10:53:28;;;;;;;13.88;8.82;;;;;;;27.28;45.83;94680.56;5016134;28;20068;-79
2021/08/26 10:55:54;;;;;;;9.68;7.97;;;;;;;27.21;44.87;94691.06;5017650;28;20493;-79
2021/08/26 10:58:22;;;;;;;10.93;8.93;;;;;;;27.25;44.76;94689.25;5016235;28;20052;-80
2021/08/26 11:00:50;;;;;;;10.90;9.02;;;;;;;27.30;44.56;94691.66;5021783;23;20239;-78
2021/08/26 11:03:46;;;;;;;16.67;9.27;;;;;;;27.34;43.86;94689.13;5017329;28;20045;-78
2021/08/26 11:06:22;;;;;;;16.35;9.50;;;;;;;27.28;44.39;94677.88;5017637;28;20057;-78
2021/08/26 11:08:54;;;;;;;16.13;9.30;;;;;;;27.10;44.37;94681.97;5020149;28;20029;-78
2021/08/26 11:11:29;;;;;;;;;;;;;;;27.13;45.16;94671.38;5015796;28;20030;-78
2021/08/26 11:14:06;;;;;;;22.77;9.30;;;;;;;27.07;45.22;94666.63;5014661;28;19979;-78
2021/08/26 11:16:39;;;;;;;14.70;10.00;;;;;;;27.06;44.75;94660.53;5016929;28;20026;-78
2021/08/26 11:19:04;;;;;;;13.27;10.38;;;;;;;26.78;45.67;94652.47;5017450;28;20108;-79
2021/08/26 11:21:45;;;;;;;13.60;11.82;;;;;;;26.70;45.37;94656.06;5015822;28;20481;-79
2021/08/26 11:24:23;;;;;;;16.80;12.48;;;;;;;26.57;45.60;94638.53;5015699;28;20496;-79
2021/08/26 11:26:48;;;;;;;18.50;12.05;;;;;;;26.39;46.03;94637.22;5013884;28;20072;-78
2021/08/26 11:29:17;;;;;;;20.33;12.48;;;;;;;26.06;46.89;94645.34;5016663;28;20034;-78
2021/08/26 11:31:42;;;;;;;22.10;14.18;;;;;;;25.95;47.18;94631.66;5015109;28;20034;-78
2021/08/26 11:34:08;;;;;;;21.85;14.27;;;;;;;25.85;47.13;94632.88;5014928;28;20042;-78
2021/08/26 11:36:33;;;;;;;21.08;14.50;;;;;;;25.79;47.34;94630.78;5016131;28;20053;-78
2021/08/26 11:38:58;;;;;;;15.90;13.52;;;;;;;25.52;48.01;94616.94;4980950;28;20029;-78
2021/08/26 11:41:24;;;;;;;25.35;14.38;;;;;;;25.34;48.77;94615.59;5015625;28;20042;-78
2021/08/26 11:43:53;;;;;;;24.20;14.10;;;;;;;25.16;49.42;94622.97;5015767;28;20021;-78
2021/08/26 11:46:18;;;;;;;19.13;14.55;;;;;;;25.10;49.36;94622.41;5015861;28;20030;-78
2021/08/26 11:48:48;;;;;;;24.38;14.88;;;;;;;25.10;49.36;94617.09;5011274;28;20092;-78